AGROMETEOROLOŠKI PORTAL

vinorodna pokrajina

Temelj dobrega kmetovanja

Pregled podatkov za lokacijo Elbl-2 DRSI, meteorološka postaja 82

Pregled senzorjev na lokaciji

ID Ime Zadnja
vrednost
Datum in čas
meritve
(lokalni čas)
Tip
senzorja
6185 Zračni tlak (hPa) 981 hPa 1.2.2023 13:30 DRSI
6182 Relativna zračna vlaga (2 m) (% RH) 100 % RH 1.2.2023 13:30 DRSI
6181 Temperatura (2 m) (°C) 10,7 °C 1.2.2023 13:30 DRSI
6184 Smer vetra (2 m) (°) 90 ° 1.2.2023 13:30 DRSI
6183 Hitrost vetra (2 m) (km/h) 5 km/h 1.2.2023 13:30 DRSI

Pregled podatkov zadnjih 24 ur

Zap.
št.
Datum in čas
(lokalni čas)
Elbl-2 DRSI
Zračni
tlak
Relativna
zračna
vlaga
(2
m)
Temperatura
(2
m)
Smer
vetra
(2
m)
Hitrost
vetra
(2
m)
1 1.2.2023 13:30 981 100 10,7 90 4,9
2 1.2.2023 13:00 981,6 100 9,7 90 6,6
3 1.2.2023 12:30 982,6 100 8,7 45 5,6
4 1.2.2023 12:00 983,2 100 6,7 51,9 4,6
5 1.2.2023 11:30 983,9 100 6 90 2,6
6 1.2.2023 11:00 984,5 100 5 45 1,7
7 1.2.2023 10:30 984,5 100 5 180 1
8 1.2.2023 10:00 984,8 100 4,3 112 4
9 1.2.2023 09:30 985,5 100 2,3 97,3 6,2
10 1.2.2023 09:00 986,4 100 2 112,3 4
11 1.2.2023 08:30 986,4 100 1,3 90 4,9
12 1.2.2023 08:00 986,4 100 0,7 90 0,7
13 1.2.2023 07:30 986,4 100 0,7 67,5 2,6
14 1.2.2023 07:00 986,4 100 0,7 112 2,3
15 1.2.2023 06:30 986,4 100 2 0
16 1.2.2023 06:00 986,4 100 1,3 90 2
17 1.2.2023 05:30 986,4 100 1 97,3 3,4
18 1.2.2023 05:00 986,4 100 1 97,3 3,6
19 1.2.2023 04:30 986,1 100 1,7 130 2,3
20 1.2.2023 04:00 985,8 100 1,3 119,6 3
21 1.2.2023 03:30 986,4 100 1,3 101 6,6
22 1.2.2023 03:00 986,4 100 1,3 90 4,3
23 1.2.2023 02:30 986,4 100 3 104,6 5,9
24 1.2.2023 02:00 986,4 100 1,3 97,3 3,2
25 1.2.2023 01:30 986,4 100 2,7 90 3,6
26 1.2.2023 01:00 986,4 100 3 97,3 6,6
27 1.2.2023 00:30 986,4 100 3,7 90 7,2
28 1.2.2023 00:00 986,4 100 4 112 7
29 31.1.2023 23:30 986,4 100 4 104,7 4
30 31.1.2023 23:00 986,4 100 4 112,3 4,9
31 31.1.2023 22:30 986,4 100 4 90 7,6
32 31.1.2023 22:00 986,4 100 4 97,3 7,2
33 31.1.2023 21:30 986,4 100 4 97,3 5,6
34 31.1.2023 21:00 986,4 100 4,7 97,3 4,7
35 31.1.2023 20:30 986,4 100 5,3 135 3,2
36 31.1.2023 20:00 986,4 100 6 90 2,6
37 31.1.2023 19:30 986,4 100 6 90 1,3
38 31.1.2023 19:00 986,4 100 7 112,3 3
39 31.1.2023 18:30 986,4 100 7 97,3 5,3
40 31.1.2023 18:00 986,4 100 7 101 5,3
41 31.1.2023 17:30 985,5 100 7 90 4,9
42 31.1.2023 17:00 985,5 100 7,3 97,3 4,9
43 31.1.2023 16:30 985,5 100 8,7 123,5 5,6
44 31.1.2023 16:00 985,5 100 9 90 8,6
45 31.1.2023 15:30 984,8 100 9 104,6 10,3
46 31.1.2023 15:00 985,5 100 9 104,7 12,2
47 31.1.2023 14:30 985,5 100 9 104,6 9,4
48 31.1.2023 14:00 985,5 100 9 157,5 9